sensor_id;sensor_type;location;lat;lon;timestamp;P1;durP1;ratioP1;P2;durP2;ratioP2
53115;SDS011;39010;48.088;7.954;2022-09-03T00:02:33;4.30;;;2.25;;
53115;SDS011;39010;48.088;7.954;2022-09-03T00:04:54;7.13;;;2.40;;
53115;SDS011;39010;48.088;7.954;2022-09-03T00:07:30;3.58;;;2.40;;
53115;SDS011;39010;48.088;7.954;2022-09-03T00:10:08;3.92;;;2.38;;
53115;SDS011;39010;48.088;7.954;2022-09-03T00:12:41;4.13;;;2.28;;
53115;SDS011;39010;48.088;7.954;2022-09-03T00:15:19;6.70;;;2.28;;
53115;SDS011;39010;48.088;7.954;2022-09-03T00:17:53;6.35;;;2.35;;
53115;SDS011;39010;48.088;7.954;2022-09-03T00:20:29;4.45;;;2.50;;
53115;SDS011;39010;48.088;7.954;2022-09-03T00:22:59;6.72;;;2.17;;
53115;SDS011;39010;48.088;7.954;2022-09-03T00:28:16;3.75;;;2.20;;
53115;SDS011;39010;48.088;7.954;2022-09-03T00:30:50;4.45;;;2.30;;
53115;SDS011;39010;48.088;7.954;2022-09-03T00:33:26;4.97;;;2.50;;
53115;SDS011;39010;48.088;7.954;2022-09-03T00:36:03;4.80;;;2.45;;
53115;SDS011;39010;48.088;7.954;2022-09-03T00:38:36;4.30;;;2.47;;
53115;SDS011;39010;48.088;7.954;2022-09-03T00:44:16;2.80;;;2.17;;
53115;SDS011;39010;48.088;7.954;2022-09-03T00:55:00;4.88;;;2.42;;
53115;SDS011;39010;48.088;7.954;2022-09-03T00:57:44;4.75;;;2.55;;
53115;SDS011;39010;48.088;7.954;2022-09-03T01:00:14;5.45;;;2.70;;
53115;SDS011;39010;48.088;7.954;2022-09-03T01:02:55;5.63;;;2.70;;
53115;SDS011;39010;48.088;7.954;2022-09-03T01:08:06;3.78;;;2.30;;
53115;SDS011;39010;48.088;7.954;2022-09-03T01:10:56;4.68;;;2.47;;
53115;SDS011;39010;48.088;7.954;2022-09-03T01:13:28;7.20;;;2.80;;
53115;SDS011;39010;48.088;7.954;2022-09-03T01:24:12;6.50;;;2.50;;
53115;SDS011;39010;48.088;7.954;2022-09-03T01:46:08;6.68;;;3.13;;
53115;SDS011;39010;48.088;7.954;2022-09-03T01:48:52;5.78;;;3.28;;
53115;SDS011;39010;48.088;7.954;2022-09-03T01:51:24;4.60;;;2.97;;
53115;SDS011;39010;48.088;7.954;2022-09-03T01:56:40;5.22;;;2.92;;
53115;SDS011;39010;48.088;7.954;2022-09-03T01:59:10;5.10;;;2.80;;
53115;SDS011;39010;48.088;7.954;2022-09-03T02:01:52;3.90;;;2.60;;
53115;SDS011;39010;48.088;7.954;2022-09-03T02:04:25;4.18;;;2.72;;
53115;SDS011;39010;48.088;7.954;2022-09-03T02:06:52;6.25;;;2.95;;
53115;SDS011;39010;48.088;7.954;2022-09-03T02:09:22;4.50;;;2.42;;
53115;SDS011;39010;48.088;7.954;2022-09-03T02:11:54;6.20;;;2.90;;
53115;SDS011;39010;48.088;7.954;2022-09-03T02:14:25;6.00;;;2.78;;
53115;SDS011;39010;48.088;7.954;2022-09-03T02:16:54;4.90;;;2.70;;
53115;SDS011;39010;48.088;7.954;2022-09-03T02:19:25;6.50;;;2.85;;
53115;SDS011;39010;48.088;7.954;2022-09-03T02:21:53;5.75;;;3.00;;
53115;SDS011;39010;48.088;7.954;2022-09-03T02:24:22;5.13;;;3.10;;
53115;SDS011;39010;48.088;7.954;2022-09-03T02:26:49;5.13;;;2.97;;
53115;SDS011;39010;48.088;7.954;2022-09-03T02:31:43;5.27;;;3.07;;
53115;SDS011;39010;48.088;7.954;2022-09-03T02:34:09;6.20;;;3.15;;
53115;SDS011;39010;48.088;7.954;2022-09-03T02:36:38;7.72;;;3.28;;
53115;SDS011;39010;48.088;7.954;2022-09-03T02:39:07;7.82;;;3.22;;
53115;SDS011;39010;48.088;7.954;2022-09-03T02:41:34;5.28;;;3.05;;
53115;SDS011;39010;48.088;7.954;2022-09-03T02:46:34;7.70;;;3.47;;
53115;SDS011;39010;48.088;7.954;2022-09-03T02:49:04;6.65;;;3.15;;
53115;SDS011;39010;48.088;7.954;2022-09-03T02:51:32;7.25;;;3.50;;
53115;SDS011;39010;48.088;7.954;2022-09-03T02:54:00;5.13;;;2.83;;
53115;SDS011;39010;48.088;7.954;2022-09-03T02:56:27;5.85;;;2.90;;
53115;SDS011;39010;48.088;7.954;2022-09-03T02:58:54;4.32;;;2.80;;
53115;SDS011;39010;48.088;7.954;2022-09-03T03:01:21;6.68;;;2.22;;
53115;SDS011;39010;48.088;7.954;2022-09-03T03:03:49;4.28;;;3.05;;
53115;SDS011;39010;48.088;7.954;2022-09-03T03:06:17;7.47;;;2.70;;
53115;SDS011;39010;48.088;7.954;2022-09-03T03:08:48;6.60;;;3.10;;
53115;SDS011;39010;48.088;7.954;2022-09-03T03:11:16;5.35;;;3.47;;
53115;SDS011;39010;48.088;7.954;2022-09-03T03:13:44;5.43;;;3.25;;
53115;SDS011;39010;48.088;7.954;2022-09-03T03:16:12;6.35;;;3.38;;
53115;SDS011;39010;48.088;7.954;2022-09-03T03:18:39;6.63;;;3.20;;
53115;SDS011;39010;48.088;7.954;2022-09-03T03:21:10;4.80;;;2.92;;
53115;SDS011;39010;48.088;7.954;2022-09-03T03:23:38;4.90;;;3.10;;
53115;SDS011;39010;48.088;7.954;2022-09-03T03:26:08;6.75;;;3.25;;
53115;SDS011;39010;48.088;7.954;2022-09-03T03:28:37;5.50;;;3.17;;
53115;SDS011;39010;48.088;7.954;2022-09-03T03:31:04;5.28;;;3.22;;
53115;SDS011;39010;48.088;7.954;2022-09-03T03:33:49;5.45;;;3.45;;
53115;SDS011;39010;48.088;7.954;2022-09-03T03:36:19;5.90;;;3.50;;
53115;SDS011;39010;48.088;7.954;2022-09-03T03:38:47;6.95;;;3.35;;
53115;SDS011;39010;48.088;7.954;2022-09-03T03:41:15;6.32;;;3.65;;
53115;SDS011;39010;48.088;7.954;2022-09-03T03:43:51;4.30;;;3.33;;
53115;SDS011;39010;48.088;7.954;2022-09-03T03:46:20;6.97;;;3.35;;
53115;SDS011;39010;48.088;7.954;2022-09-03T03:48:48;7.80;;;3.50;;
53115;SDS011;39010;48.088;7.954;2022-09-03T03:51:15;6.82;;;3.70;;
53115;SDS011;39010;48.088;7.954;2022-09-03T03:53:43;6.35;;;3.55;;
53115;SDS011;39010;48.088;7.954;2022-09-03T03:56:10;6.00;;;3.30;;
53115;SDS011;39010;48.088;7.954;2022-09-03T03:58:39;6.72;;;3.67;;
53115;SDS011;39010;48.088;7.954;2022-09-03T04:01:12;6.90;;;3.75;;
53115;SDS011;39010;48.088;7.954;2022-09-03T04:03:40;5.40;;;3.50;;
53115;SDS011;39010;48.088;7.954;2022-09-03T04:06:09;8.95;;;3.50;;
53115;SDS011;39010;48.088;7.954;2022-09-03T04:08:38;5.18;;;3.00;;
53115;SDS011;39010;48.088;7.954;2022-09-03T04:11:07;6.93;;;3.45;;
53115;SDS011;39010;48.088;7.954;2022-09-03T04:13:36;5.40;;;3.60;;
53115;SDS011;39010;48.088;7.954;2022-09-03T04:16:05;5.80;;;3.30;;
53115;SDS011;39010;48.088;7.954;2022-09-03T04:18:43;8.90;;;3.67;;
53115;SDS011;39010;48.088;7.954;2022-09-03T04:21:12;7.25;;;3.63;;
53115;SDS011;39010;48.088;7.954;2022-09-03T04:23:41;5.25;;;3.47;;
53115;SDS011;39010;48.088;7.954;2022-09-03T04:26:10;6.95;;;3.88;;
53115;SDS011;39010;48.088;7.954;2022-09-03T04:28:38;5.07;;;3.30;;
53115;SDS011;39010;48.088;7.954;2022-09-03T04:31:08;6.68;;;3.42;;
53115;SDS011;39010;48.088;7.954;2022-09-03T04:33:37;6.28;;;3.40;;
53115;SDS011;39010;48.088;7.954;2022-09-03T04:38:33;7.43;;;3.67;;
53115;SDS011;39010;48.088;7.954;2022-09-03T04:41:01;5.55;;;3.78;;
53115;SDS011;39010;48.088;7.954;2022-09-03T04:43:29;5.78;;;3.45;;
53115;SDS011;39010;48.088;7.954;2022-09-03T04:48:23;6.80;;;3.80;;
53115;SDS011;39010;48.088;7.954;2022-09-03T04:50:51;6.53;;;3.92;;
53115;SDS011;39010;48.088;7.954;2022-09-03T04:53:18;5.78;;;3.65;;
53115;SDS011;39010;48.088;7.954;2022-09-03T04:55:44;5.97;;;3.60;;
53115;SDS011;39010;48.088;7.954;2022-09-03T05:00:37;6.47;;;3.28;;
53115;SDS011;39010;48.088;7.954;2022-09-03T05:03:04;6.55;;;3.60;;
53115;SDS011;39010;48.088;7.954;2022-09-03T05:08:01;6.28;;;3.55;;
53115;SDS011;39010;48.088;7.954;2022-09-03T05:10:28;4.85;;;3.58;;
53115;SDS011;39010;48.088;7.954;2022-09-03T05:15:28;6.38;;;4.00;;
53115;SDS011;39010;48.088;7.954;2022-09-03T05:17:57;5.35;;;3.85;;
53115;SDS011;39010;48.088;7.954;2022-09-03T05:20:25;5.53;;;3.63;;
53115;SDS011;39010;48.088;7.954;2022-09-03T05:22:51;6.45;;;3.92;;
53115;SDS011;39010;48.088;7.954;2022-09-03T05:27:45;4.93;;;3.10;;
53115;SDS011;39010;48.088;7.954;2022-09-03T05:30:12;9.57;;;3.63;;
53115;SDS011;39010;48.088;7.954;2022-09-03T05:32:39;6.38;;;3.60;;
53115;SDS011;39010;48.088;7.954;2022-09-03T05:35:07;7.47;;;3.90;;
53115;SDS011;39010;48.088;7.954;2022-09-03T05:37:35;7.60;;;4.20;;
53115;SDS011;39010;48.088;7.954;2022-09-03T05:40:03;6.82;;;3.70;;
53115;SDS011;39010;48.088;7.954;2022-09-03T05:42:30;5.18;;;3.50;;
53115;SDS011;39010;48.088;7.954;2022-09-03T05:44:57;8.38;;;3.92;;
53115;SDS011;39010;48.088;7.954;2022-09-03T05:47:25;7.72;;;3.80;;
53115;SDS011;39010;48.088;7.954;2022-09-03T05:52:17;6.63;;;3.80;;
53115;SDS011;39010;48.088;7.954;2022-09-03T05:54:47;6.05;;;3.50;;
53115;SDS011;39010;48.088;7.954;2022-09-03T05:59:39;8.60;;;3.75;;
53115;SDS011;39010;48.088;7.954;2022-09-03T06:02:06;5.32;;;3.55;;
53115;SDS011;39010;48.088;7.954;2022-09-03T06:04:32;12.82;;;4.57;;
53115;SDS011;39010;48.088;7.954;2022-09-03T06:09:25;5.63;;;3.67;;
53115;SDS011;39010;48.088;7.954;2022-09-03T06:11:52;7.00;;;3.90;;
53115;SDS011;39010;48.088;7.954;2022-09-03T06:14:22;5.78;;;3.63;;
53115;SDS011;39010;48.088;7.954;2022-09-03T06:19:17;8.07;;;3.80;;
53115;SDS011;39010;48.088;7.954;2022-09-03T06:21:44;6.45;;;3.83;;
53115;SDS011;39010;48.088;7.954;2022-09-03T06:24:13;6.50;;;3.83;;
53115;SDS011;39010;48.088;7.954;2022-09-03T06:26:45;4.68;;;3.40;;
53115;SDS011;39010;48.088;7.954;2022-09-03T06:29:12;5.65;;;3.75;;
53115;SDS011;39010;48.088;7.954;2022-09-03T06:31:38;5.20;;;3.58;;
53115;SDS011;39010;48.088;7.954;2022-09-03T06:34:05;6.22;;;3.88;;
53115;SDS011;39010;48.088;7.954;2022-09-03T06:36:32;5.60;;;3.55;;
53115;SDS011;39010;48.088;7.954;2022-09-03T06:38:59;6.38;;;3.33;;
53115;SDS011;39010;48.088;7.954;2022-09-03T06:41:27;7.28;;;4.00;;
53115;SDS011;39010;48.088;7.954;2022-09-03T06:44:01;7.15;;;3.50;;
53115;SDS011;39010;48.088;7.954;2022-09-03T06:46:31;5.88;;;3.60;;
53115;SDS011;39010;48.088;7.954;2022-09-03T06:48:58;5.50;;;3.40;;
53115;SDS011;39010;48.088;7.954;2022-09-03T06:51:26;5.97;;;3.15;;
53115;SDS011;39010;48.088;7.954;2022-09-03T06:53:57;5.95;;;3.33;;
53115;SDS011;39010;48.088;7.954;2022-09-03T06:56:26;5.45;;;3.67;;
53115;SDS011;39010;48.088;7.954;2022-09-03T07:01:48;5.80;;;3.30;;
53115;SDS011;39010;48.088;7.954;2022-09-03T07:04:26;4.93;;;3.40;;
53115;SDS011;39010;48.088;7.954;2022-09-03T07:06:54;5.65;;;3.35;;
53115;SDS011;39010;48.088;7.954;2022-09-03T07:11:53;5.75;;;3.65;;
53115;SDS011;39010;48.088;7.954;2022-09-03T07:14:20;6.95;;;4.05;;
53115;SDS011;39010;48.088;7.954;2022-09-03T07:16:48;5.22;;;3.70;;
53115;SDS011;39010;48.088;7.954;2022-09-03T07:19:15;6.68;;;4.00;;
53115;SDS011;39010;48.088;7.954;2022-09-03T07:21:42;7.88;;;3.78;;
53115;SDS011;39010;48.088;7.954;2022-09-03T07:24:14;7.10;;;3.95;;
53115;SDS011;39010;48.088;7.954;2022-09-03T07:29:12;6.28;;;3.90;;
53115;SDS011;39010;48.088;7.954;2022-09-03T07:31:41;6.32;;;3.72;;
53115;SDS011;39010;48.088;7.954;2022-09-03T07:34:09;7.53;;;3.78;;
53115;SDS011;39010;48.088;7.954;2022-09-03T07:36:39;5.93;;;3.45;;
53115;SDS011;39010;48.088;7.954;2022-09-03T07:39:14;5.05;;;3.65;;
53115;SDS011;39010;48.088;7.954;2022-09-03T07:41:42;5.05;;;3.10;;
53115;SDS011;39010;48.088;7.954;2022-09-03T07:44:14;4.43;;;3.13;;
53115;SDS011;39010;48.088;7.954;2022-09-03T07:46:45;6.55;;;2.97;;
53115;SDS011;39010;48.088;7.954;2022-09-03T07:49:13;5.60;;;3.22;;
53115;SDS011;39010;48.088;7.954;2022-09-03T07:51:39;4.93;;;2.72;;
53115;SDS011;39010;48.088;7.954;2022-09-03T07:54:07;5.35;;;3.10;;
53115;SDS011;39010;48.088;7.954;2022-09-03T07:56:36;4.82;;;3.00;;
53115;SDS011;39010;48.088;7.954;2022-09-03T07:59:04;5.25;;;3.10;;
53115;SDS011;39010;48.088;7.954;2022-09-03T08:01:31;6.05;;;3.35;;
53115;SDS011;39010;48.088;7.954;2022-09-03T08:03:59;4.90;;;3.63;;
53115;SDS011;39010;48.088;7.954;2022-09-03T08:06:28;5.00;;;3.08;;
53115;SDS011;39010;48.088;7.954;2022-09-03T08:08:55;4.20;;;3.00;;
53115;SDS011;39010;48.088;7.954;2022-09-03T08:11:30;5.90;;;3.00;;
53115;SDS011;39010;48.088;7.954;2022-09-03T08:13:58;5.03;;;3.15;;
53115;SDS011;39010;48.088;7.954;2022-09-03T08:16:28;7.60;;;2.85;;
53115;SDS011;39010;48.088;7.954;2022-09-03T08:18:56;5.30;;;2.97;;
53115;SDS011;39010;48.088;7.954;2022-09-03T08:21:23;3.65;;;2.55;;
53115;SDS011;39010;48.088;7.954;2022-09-03T08:23:52;4.68;;;2.20;;
53115;SDS011;39010;48.088;7.954;2022-09-03T08:26:21;3.88;;;2.25;;
53115;SDS011;39010;48.088;7.954;2022-09-03T08:28:48;4.35;;;2.33;;
53115;SDS011;39010;48.088;7.954;2022-09-03T08:31:15;2.97;;;2.20;;
53115;SDS011;39010;48.088;7.954;2022-09-03T08:33:49;3.28;;;2.50;;
53115;SDS011;39010;48.088;7.954;2022-09-03T08:36:19;4.32;;;2.58;;
53115;SDS011;39010;48.088;7.954;2022-09-03T08:38:50;3.92;;;2.50;;
53115;SDS011;39010;48.088;7.954;2022-09-03T08:41:23;6.50;;;2.60;;
53115;SDS011;39010;48.088;7.954;2022-09-03T08:46:48;3.15;;;2.17;;
53115;SDS011;39010;48.088;7.954;2022-09-03T08:55:04;3.78;;;2.08;;
53115;SDS011;39010;48.088;7.954;2022-09-03T08:57:49;4.07;;;2.30;;
53115;SDS011;39010;48.088;7.954;2022-09-03T09:04:02;4.43;;;2.25;;
53115;SDS011;39010;48.088;7.954;2022-09-03T09:09:04;4.32;;;2.30;;
53115;SDS011;39010;48.088;7.954;2022-09-03T09:11:45;3.13;;;2.05;;
53115;SDS011;39010;48.088;7.954;2022-09-03T09:14:22;5.22;;;2.30;;
53115;SDS011;39010;48.088;7.954;2022-09-03T09:17:23;3.53;;;2.30;;
53115;SDS011;39010;48.088;7.954;2022-09-03T09:20:16;3.65;;;2.20;;
53115;SDS011;39010;48.088;7.954;2022-09-03T09:23:00;3.58;;;2.17;;
53115;SDS011;39010;48.088;7.954;2022-09-03T09:25:32;3.67;;;2.17;;
53115;SDS011;39010;48.088;7.954;2022-09-03T09:28:23;5.22;;;2.25;;
53115;SDS011;39010;48.088;7.954;2022-09-03T09:30:54;4.88;;;2.45;;
53115;SDS011;39010;48.088;7.954;2022-09-03T09:33:22;4.50;;;2.30;;
53115;SDS011;39010;48.088;7.954;2022-09-03T09:35:50;6.30;;;2.30;;
53115;SDS011;39010;48.088;7.954;2022-09-03T09:38:26;5.50;;;2.45;;
53115;SDS011;39010;48.088;7.954;2022-09-03T09:40:54;4.32;;;2.45;;
53115;SDS011;39010;48.088;7.954;2022-09-03T09:43:22;3.63;;;2.08;;
53115;SDS011;39010;48.088;7.954;2022-09-03T09:45:50;3.83;;;2.30;;
53115;SDS011;39010;48.088;7.954;2022-09-03T09:51:06;4.05;;;2.30;;
53115;SDS011;39010;48.088;7.954;2022-09-03T09:56:57;6.13;;;2.60;;
53115;SDS011;39010;48.088;7.954;2022-09-03T09:59:25;4.22;;;2.47;;
53115;SDS011;39010;48.088;7.954;2022-09-03T10:02:01;4.40;;;2.08;;
53115;SDS011;39010;48.088;7.954;2022-09-03T10:04:34;6.00;;;2.28;;
53115;SDS011;39010;48.088;7.954;2022-09-03T10:07:21;3.70;;;1.98;;
53115;SDS011;39010;48.088;7.954;2022-09-03T10:10:04;8.60;;;2.60;;
53115;SDS011;39010;48.088;7.954;2022-09-03T10:15:28;7.13;;;3.08;;
53115;SDS011;39010;48.088;7.954;2022-09-03T10:21:00;8.48;;;3.10;;
53115;SDS011;39010;48.088;7.954;2022-09-03T10:23:36;6.07;;;2.67;;
53115;SDS011;39010;48.088;7.954;2022-09-03T10:26:13;4.88;;;2.47;;
53115;SDS011;39010;48.088;7.954;2022-09-03T10:28:49;4.75;;;2.60;;
53115;SDS011;39010;48.088;7.954;2022-09-03T10:34:13;6.78;;;2.40;;
53115;SDS011;39010;48.088;7.954;2022-09-03T10:46:14;7.97;;;2.58;;
53115;SDS011;39010;48.088;7.954;2022-09-03T10:49:11;4.18;;;2.33;;
53115;SDS011;39010;48.088;7.954;2022-09-03T10:52:02;3.55;;;2.10;;
53115;SDS011;39010;48.088;7.954;2022-09-03T10:54:38;3.53;;;1.90;;
53115;SDS011;39010;48.088;7.954;2022-09-03T11:10:48;3.25;;;1.80;;
53115;SDS011;39010;48.088;7.954;2022-09-03T11:13:21;2.25;;;1.60;;
53115;SDS011;39010;48.088;7.954;2022-09-03T11:16:02;4.38;;;2.00;;
53115;SDS011;39010;48.088;7.954;2022-09-03T11:18:46;3.72;;;2.05;;
53115;SDS011;39010;48.088;7.954;2022-09-03T11:21:15;3.40;;;1.40;;
53115;SDS011;39010;48.088;7.954;2022-09-03T11:23:48;1.90;;;1.35;;
53115;SDS011;39010;48.088;7.954;2022-09-03T11:26:23;2.10;;;1.30;;
53115;SDS011;39010;48.088;7.954;2022-09-03T11:28:58;3.13;;;1.50;;
53115;SDS011;39010;48.088;7.954;2022-09-03T11:31:44;6.97;;;2.15;;
53115;SDS011;39010;48.088;7.954;2022-09-03T11:37:05;2.45;;;1.60;;
53115;SDS011;39010;48.088;7.954;2022-09-03T11:39:40;2.70;;;1.40;;
53115;SDS011;39010;48.088;7.954;2022-09-03T11:42:11;2.50;;;1.42;;
53115;SDS011;39010;48.088;7.954;2022-09-03T11:44:49;2.63;;;1.42;;
53115;SDS011;39010;48.088;7.954;2022-09-03T11:47:21;4.88;;;1.35;;
53115;SDS011;39010;48.088;7.954;2022-09-03T11:49:50;3.38;;;1.30;;
53115;SDS011;39010;48.088;7.954;2022-09-03T11:52:25;3.72;;;1.42;;
53115;SDS011;39010;48.088;7.954;2022-09-03T11:54:57;2.92;;;1.33;;
53115;SDS011;39010;48.088;7.954;2022-09-03T11:57:27;3.20;;;1.30;;
53115;SDS011;39010;48.088;7.954;2022-09-03T12:00:13;2.20;;;1.13;;
53115;SDS011;39010;48.088;7.954;2022-09-03T12:02:48;2.08;;;1.30;;
53115;SDS011;39010;48.088;7.954;2022-09-03T12:20:14;2.35;;;1.30;;
53115;SDS011;39010;48.088;7.954;2022-09-03T12:22:42;2.72;;;1.20;;
53115;SDS011;39010;48.088;7.954;2022-09-03T12:25:09;1.90;;;1.33;;
53115;SDS011;39010;48.088;7.954;2022-09-03T12:27:39;3.50;;;1.30;;
53115;SDS011;39010;48.088;7.954;2022-09-03T12:30:20;1.98;;;1.20;;
53115;SDS011;39010;48.088;7.954;2022-09-03T12:32:49;1.65;;;1.20;;
53115;SDS011;39010;48.088;7.954;2022-09-03T12:35:18;1.17;;;0.98;;
53115;SDS011;39010;48.088;7.954;2022-09-03T12:38:07;2.30;;;1.38;;
53115;SDS011;39010;48.088;7.954;2022-09-03T12:40:43;2.25;;;1.10;;
53115;SDS011;39010;48.088;7.954;2022-09-03T12:43:29;1.30;;;1.20;;
53115;SDS011;39010;48.088;7.954;2022-09-03T12:46:12;1.67;;;1.30;;
53115;SDS011;39010;48.088;7.954;2022-09-03T12:48:45;3.30;;;1.30;;
53115;SDS011;39010;48.088;7.954;2022-09-03T12:51:38;1.23;;;1.13;;
53115;SDS011;39010;48.088;7.954;2022-09-03T12:54:19;0.90;;;0.80;;
53115;SDS011;39010;48.088;7.954;2022-09-03T12:56:47;0.77;;;0.77;;
53115;SDS011;39010;48.088;7.954;2022-09-03T12:59:21;1.63;;;1.00;;
53115;SDS011;39010;48.088;7.954;2022-09-03T13:01:51;1.92;;;0.90;;
53115;SDS011;39010;48.088;7.954;2022-09-03T13:04:25;0.73;;;0.68;;
53115;SDS011;39010;48.088;7.954;2022-09-03T13:06:56;1.58;;;0.90;;
53115;SDS011;39010;48.088;7.954;2022-09-03T13:09:29;0.95;;;0.70;;
53115;SDS011;39010;48.088;7.954;2022-09-03T13:11:58;0.65;;;0.65;;
53115;SDS011;39010;48.088;7.954;2022-09-03T13:14:26;0.95;;;0.88;;
53115;SDS011;39010;48.088;7.954;2022-09-03T13:17:02;2.08;;;0.85;;
53115;SDS011;39010;48.088;7.954;2022-09-03T13:30:54;3.78;;;1.13;;
53115;SDS011;39010;48.088;7.954;2022-09-03T13:33:31;1.17;;;0.80;;
53115;SDS011;39010;48.088;7.954;2022-09-03T13:36:21;1.27;;;0.80;;
53115;SDS011;39010;48.088;7.954;2022-09-03T13:38:56;1.10;;;1.00;;
53115;SDS011;39010;48.088;7.954;2022-09-03T13:41:33;2.40;;;1.00;;
53115;SDS011;39010;48.088;7.954;2022-09-03T13:46:55;4.18;;;1.20;;
53115;SDS011;39010;48.088;7.954;2022-09-03T13:55:45;1.17;;;0.82;;
53115;SDS011;39010;48.088;7.954;2022-09-03T14:00:53;0.70;;;0.70;;
53115;SDS011;39010;48.088;7.954;2022-09-03T14:03:51;1.25;;;0.60;;
53115;SDS011;39010;48.088;7.954;2022-09-03T14:09:13;0.73;;;0.73;;
53115;SDS011;39010;48.088;7.954;2022-09-03T14:11:48;1.25;;;0.80;;
53115;SDS011;39010;48.088;7.954;2022-09-03T14:17:09;0.70;;;0.70;;
53115;SDS011;39010;48.088;7.954;2022-09-03T14:22:25;0.70;;;0.70;;
53115;SDS011;39010;48.088;7.954;2022-09-03T14:25:18;1.17;;;0.68;;
53115;SDS011;39010;48.088;7.954;2022-09-03T14:27:47;0.60;;;0.60;;
53115;SDS011;39010;48.088;7.954;2022-09-03T14:30:39;1.67;;;1.08;;
53115;SDS011;39010;48.088;7.954;2022-09-03T14:36:08;1.02;;;0.80;;
53115;SDS011;39010;48.088;7.954;2022-09-03T14:44:26;2.92;;;0.82;;
53115;SDS011;39010;48.088;7.954;2022-09-03T15:01:28;2.30;;;1.02;;
53115;SDS011;39010;48.088;7.954;2022-09-03T15:09:21;1.67;;;0.90;;
53115;SDS011;39010;48.088;7.954;2022-09-03T15:15:00;1.27;;;1.13;;
53115;SDS011;39010;48.088;7.954;2022-09-03T15:18:01;1.05;;;0.90;;
53115;SDS011;39010;48.088;7.954;2022-09-03T15:23:19;4.85;;;1.00;;
53115;SDS011;39010;48.088;7.954;2022-09-03T15:34:18;1.13;;;1.00;;
53115;SDS011;39010;48.088;7.954;2022-09-03T15:37:01;2.53;;;1.20;;
53115;SDS011;39010;48.088;7.954;2022-09-03T15:39:37;1.70;;;1.17;;
53115;SDS011;39010;48.088;7.954;2022-09-03T15:42:13;7.32;;;1.65;;
53115;SDS011;39010;48.088;7.954;2022-09-03T15:44:50;3.53;;;1.15;;
53115;SDS011;39010;48.088;7.954;2022-09-03T15:47:31;3.58;;;1.20;;
53115;SDS011;39010;48.088;7.954;2022-09-03T16:04:20;2.85;;;1.60;;
53115;SDS011;39010;48.088;7.954;2022-09-03T16:07:15;1.83;;;1.20;;
53115;SDS011;39010;48.088;7.954;2022-09-03T16:09:58;2.20;;;1.50;;
53115;SDS011;39010;48.088;7.954;2022-09-03T16:12:51;2.17;;;1.30;;
53115;SDS011;39010;48.088;7.954;2022-09-03T16:15:40;2.30;;;1.40;;
53115;SDS011;39010;48.088;7.954;2022-09-03T16:18:30;2.20;;;1.30;;
53115;SDS011;39010;48.088;7.954;2022-09-03T16:21:03;2.05;;;1.45;;
53115;SDS011;39010;48.088;7.954;2022-09-03T16:24:30;2.90;;;1.60;;
53115;SDS011;39010;48.088;7.954;2022-09-03T16:29:14;2.28;;;1.50;;
53115;SDS011;39010;48.088;7.954;2022-09-03T16:32:06;1.52;;;1.40;;
53115;SDS011;39010;48.088;7.954;2022-09-03T16:34:52;1.65;;;1.27;;
53115;SDS011;39010;48.088;7.954;2022-09-03T16:40:22;3.63;;;1.90;;
53115;SDS011;39010;48.088;7.954;2022-09-03T16:43:20;2.22;;;1.50;;
53115;SDS011;39010;48.088;7.954;2022-09-03T16:51:54;3.53;;;1.60;;
53115;SDS011;39010;48.088;7.954;2022-09-03T17:22:16;4.07;;;1.88;;
53115;SDS011;39010;48.088;7.954;2022-09-03T17:24:53;3.53;;;1.80;;
53115;SDS011;39010;48.088;7.954;2022-09-03T17:27:42;5.25;;;1.60;;
53115;SDS011;39010;48.088;7.954;2022-09-03T17:30:26;5.15;;;1.90;;
53115;SDS011;39010;48.088;7.954;2022-09-03T17:36:11;7.43;;;2.38;;
53115;SDS011;39010;48.088;7.954;2022-09-03T17:47:33;6.22;;;2.00;;
53115;SDS011;39010;48.088;7.954;2022-09-03T17:52:54;5.70;;;2.13;;
53115;SDS011;39010;48.088;7.954;2022-09-03T17:55:28;9.68;;;2.55;;
53115;SDS011;39010;48.088;7.954;2022-09-03T17:58:06;3.75;;;2.10;;
53115;SDS011;39010;48.088;7.954;2022-09-03T18:03:25;4.78;;;2.38;;
53115;SDS011;39010;48.088;7.954;2022-09-03T18:06:00;19.20;;;12.35;;
53115;SDS011;39010;48.088;7.954;2022-09-03T18:22:41;5.03;;;2.28;;
53115;SDS011;39010;48.088;7.954;2022-09-03T18:25:34;5.00;;;2.13;;
53115;SDS011;39010;48.088;7.954;2022-09-03T18:28:28;3.47;;;2.10;;
53115;SDS011;39010;48.088;7.954;2022-09-03T18:31:21;5.55;;;2.50;;
53115;SDS011;39010;48.088;7.954;2022-09-03T18:34:07;7.32;;;2.70;;
53115;SDS011;39010;48.088;7.954;2022-09-03T18:36:53;6.65;;;2.70;;
53115;SDS011;39010;48.088;7.954;2022-09-03T18:39:43;4.90;;;2.63;;
53115;SDS011;39010;48.088;7.954;2022-09-03T18:55:17;5.68;;;2.30;;
53115;SDS011;39010;48.088;7.954;2022-09-03T19:04:05;5.82;;;2.47;;
53115;SDS011;39010;48.088;7.954;2022-09-03T19:16:40;6.95;;;2.40;;
53115;SDS011;39010;48.088;7.954;2022-09-03T19:25:19;4.90;;;2.30;;
53115;SDS011;39010;48.088;7.954;2022-09-03T19:28:21;5.63;;;2.40;;
53115;SDS011;39010;48.088;7.954;2022-09-03T19:34:29;2.50;;;2.00;;
53115;SDS011;39010;48.088;7.954;2022-09-03T19:37:29;5.90;;;2.50;;
53115;SDS011;39010;48.088;7.954;2022-09-03T19:52:46;4.50;;;2.70;;
53115;SDS011;39010;48.088;7.954;2022-09-03T19:55:38;3.65;;;2.50;;
53115;SDS011;39010;48.088;7.954;2022-09-03T19:58:33;4.93;;;2.78;;
53115;SDS011;39010;48.088;7.954;2022-09-03T20:01:20;5.30;;;2.20;;
53115;SDS011;39010;48.088;7.954;2022-09-03T20:04:12;4.13;;;2.38;;
53115;SDS011;39010;48.088;7.954;2022-09-03T20:06:59;4.28;;;2.17;;
53115;SDS011;39010;48.088;7.954;2022-09-03T20:09:47;5.57;;;2.72;;
53115;SDS011;39010;48.088;7.954;2022-09-03T20:12:34;5.00;;;2.50;;
53115;SDS011;39010;48.088;7.954;2022-09-03T20:15:05;5.45;;;2.38;;
53115;SDS011;39010;48.088;7.954;2022-09-03T20:20:23;4.53;;;2.45;;
53115;SDS011;39010;48.088;7.954;2022-09-03T20:23:13;3.88;;;2.28;;
53115;SDS011;39010;48.088;7.954;2022-09-03T20:42:31;4.88;;;2.53;;
53115;SDS011;39010;48.088;7.954;2022-09-03T20:53:39;4.88;;;2.35;;
53115;SDS011;39010;48.088;7.954;2022-09-03T20:58:53;5.00;;;2.60;;
53115;SDS011;39010;48.088;7.954;2022-09-03T21:10:26;5.15;;;2.70;;
53115;SDS011;39010;48.088;7.954;2022-09-03T21:13:02;4.40;;;2.80;;
53115;SDS011;39010;48.088;7.954;2022-09-03T21:15:50;5.97;;;2.88;;
53115;SDS011;39010;48.088;7.954;2022-09-03T21:24:07;5.68;;;2.72;;
53115;SDS011;39010;48.088;7.954;2022-09-03T21:26:40;5.07;;;2.95;;
53115;SDS011;39010;48.088;7.954;2022-09-03T21:34:40;5.32;;;2.75;;
53115;SDS011;39010;48.088;7.954;2022-09-03T21:37:09;6.88;;;2.97;;
53115;SDS011;39010;48.088;7.954;2022-09-03T21:39:42;5.35;;;2.92;;
53115;SDS011;39010;48.088;7.954;2022-09-03T21:42:15;4.97;;;2.92;;
53115;SDS011;39010;48.088;7.954;2022-09-03T21:44:54;4.90;;;2.95;;
53115;SDS011;39010;48.088;7.954;2022-09-03T21:47:28;5.95;;;2.58;;
53115;SDS011;39010;48.088;7.954;2022-09-03T21:50:04;6.00;;;2.97;;
53115;SDS011;39010;48.088;7.954;2022-09-03T21:52:46;4.68;;;2.83;;
53115;SDS011;39010;48.088;7.954;2022-09-03T21:55:43;7.45;;;2.85;;
53115;SDS011;39010;48.088;7.954;2022-09-03T21:58:10;6.47;;;2.97;;
53115;SDS011;39010;48.088;7.954;2022-09-03T22:00:38;6.95;;;3.28;;
53115;SDS011;39010;48.088;7.954;2022-09-03T22:05:46;5.32;;;3.03;;
53115;SDS011;39010;48.088;7.954;2022-09-03T22:08:30;6.57;;;3.08;;
53115;SDS011;39010;48.088;7.954;2022-09-03T22:11:15;12.82;;;3.72;;
53115;SDS011;39010;48.088;7.954;2022-09-03T22:14:01;8.00;;;2.88;;
53115;SDS011;39010;48.088;7.954;2022-09-03T22:16:54;5.22;;;3.03;;
53115;SDS011;39010;48.088;7.954;2022-09-03T22:19:31;4.40;;;2.90;;
53115;SDS011;39010;48.088;7.954;2022-09-03T22:22:04;4.15;;;2.63;;
53115;SDS011;39010;48.088;7.954;2022-09-03T22:24:39;6.03;;;2.85;;
53115;SDS011;39010;48.088;7.954;2022-09-03T22:27:51;4.68;;;2.55;;
53115;SDS011;39010;48.088;7.954;2022-09-03T22:30:19;5.45;;;2.67;;